Time;durP1;ratioP1;P1;durP2;ratioP2;P2;SDS_P1;SDS_P2;PMS_P1;PMS_P2;Temp;Humidity;BMP_temperature;BMP_pressure;BME280_temperature;BME280_humidity;BME280_pressure;Samples;Min_cycle;Max_cycle;Signal;HPM_P1;HPM_P2
2021/12/12 00:00:13;;;;;;;9.43;5.72;;;;;;;;;;5062428;28;20218;-79
2021/12/12 00:02:56;;;;;;;8.88;5.57;;;;;;;;;;5052852;28;20238;-79
2021/12/12 00:05:26;;;;;;;12.15;5.88;;;;;;;;;;5059985;28;20190;-80
2021/12/12 00:07:53;;;;;;;7.38;5.57;;;;;;;;;;5048552;28;20263;-80
2021/12/12 00:10:22;;;;;;;10.77;6.40;;;;;;;;;;5049745;28;20222;-75
2021/12/12 00:12:51;;;;;;;11.15;5.40;;;;;;;;;;5048555;28;20214;-77
2021/12/12 00:15:19;;;;;;;9.65;5.30;;;;;;;;;;5054394;28;20199;-77
2021/12/12 00:17:48;;;;;;;7.60;5.05;;;;;;;;;;5055595;28;20903;-74
2021/12/12 00:20:17;;;;;;;6.15;4.80;;;;;;;;;;5049898;28;20206;-74
2021/12/12 00:22:45;;;;;;;7.82;5.22;;;;;;;;;;5031914;28;20687;-76
2021/12/12 00:25:12;;;;;;;10.68;5.95;;;;;;;;;;5053913;28;20199;-76
2021/12/12 00:27:40;;;;;;;4.28;3.88;;;;;;;;;;5056062;28;20217;-77
2021/12/12 00:30:08;;;;;;;8.73;5.38;;;;;;;;;;5054641;28;20622;-76
2021/12/12 00:32:37;;;;;;;5.82;4.32;;;;;;;;;;5055842;28;20191;-76
2021/12/12 00:35:08;;;;;;;9.65;5.25;;;;;;;;;;5057337;28;20201;-76
2021/12/12 00:37:36;;;;;;;5.95;4.50;;;;;;;;;;5055679;28;20199;-76
2021/12/12 00:40:06;;;;;;;8.68;4.10;;;;;;;;;;5054135;28;20202;-76
2021/12/12 00:42:35;;;;;;;7.22;4.15;;;;;;;;;;5061574;28;20199;-76
2021/12/12 00:45:05;;;;;;;6.63;5.35;;;;;;;;;;5058671;28;20635;-77
2021/12/12 00:47:33;;;;;;;7.28;4.60;;;;;;;;;;5053157;28;20563;-76
2021/12/12 00:50:01;;;;;;;8.25;5.05;;;;;;;;;;5053806;28;20654;-77
2021/12/12 00:52:29;;;;;;;6.53;4.75;;;;;;;;;;5049888;28;20206;-76
2021/12/12 00:54:56;;;;;;;8.82;5.60;;;;;;;;;;5047650;28;20570;-76
2021/12/12 00:57:24;;;;;;;6.90;3.88;;;;;;;;;;5056225;28;20199;-76
2021/12/12 00:59:51;;;;;;;6.82;3.70;;;;;;;;;;5062054;28;20210;-76
2021/12/12 01:02:20;;;;;;;7.63;3.95;;;;;;;;;;5060717;28;20570;-76
2021/12/12 01:04:48;;;;;;;7.70;4.05;;;;;;;;;;5050947;28;20210;-77
2021/12/12 01:07:17;;;;;;;5.20;4.13;;;;;;;;;;5043576;28;20195;-77
2021/12/12 01:09:49;;;;;;;6.65;4.53;;;;;;;;;;5050811;28;20229;-77
2021/12/12 01:12:18;;;;;;;5.68;4.20;;;;;;;;;;5053647;28;20229;-77
2021/12/12 01:14:47;;;;;;;6.10;3.85;;;;;;;;;;5047375;28;20199;-77
2021/12/12 01:17:18;;;;;;;6.30;4.53;;;;;;;;;;5044645;28;20606;-75
2021/12/12 01:19:49;;;;;;;6.28;4.28;;;;;;;;;;5051632;28;20190;-76
2021/12/12 01:22:23;;;;;;;6.68;3.65;;;;;;;;;;5057266;28;20219;-77
2021/12/12 01:24:53;;;;;;;3.95;3.53;;;;;;;;;;5057276;28;20323;-77
2021/12/12 01:27:21;;;;;;;4.95;4.05;;;;;;;;;;5058756;28;20199;-76
2021/12/12 01:29:49;;;;;;;4.55;3.65;;;;;;;;;;5049454;28;20223;-76
2021/12/12 01:32:24;;;;;;;7.25;4.43;;;;;;;;;;5049255;28;20357;-76
2021/12/12 01:34:51;;;;;;;7.25;4.68;;;;;;;;;;5030945;28;20233;-78
2021/12/12 01:37:35;;;;;;;5.65;3.33;;;;;;;;;;5044092;28;21138;-76
2021/12/12 01:40:07;;;;;;;8.50;4.60;;;;;;;;;;5054514;28;20812;-76
2021/12/12 01:42:35;;;;;;;3.85;3.38;;;;;;;;;;5052866;28;20804;-76
2021/12/12 01:45:06;;;;;;;6.15;3.25;;;;;;;;;;5058192;28;20206;-77
2021/12/12 01:47:36;;;;;;;6.50;4.68;;;;;;;;;;5058949;28;20661;-76
2021/12/12 01:50:07;;;;;;;6.50;3.90;;;;;;;;;;5063678;28;20195;-76
2021/12/12 01:52:34;;;;;;;4.63;3.58;;;;;;;;;;5051564;28;20209;-77
2021/12/12 01:55:06;;;;;;;4.63;3.75;;;;;;;;;;5055974;28;20195;-76
2021/12/12 01:57:35;;;;;;;4.25;3.85;;;;;;;;;;5052997;28;20203;-76
2021/12/12 02:00:08;;;;;;;5.38;3.88;;;;;;;;;;5055656;28;20210;-77
2021/12/12 02:02:35;;;;;;;8.05;3.88;;;;;;;;;;5048414;28;20191;-77
2021/12/12 02:05:07;;;;;;;4.95;4.47;;;;;;;;;;5059485;28;20190;-77
2021/12/12 02:07:35;;;;;;;8.52;3.80;;;;;;;;;;5046151;28;20663;-76
2021/12/12 02:10:07;;;;;;;5.22;3.55;;;;;;;;;;5057583;28;20217;-76
2021/12/12 02:12:36;;;;;;;6.20;3.67;;;;;;;;;;5058720;28;20214;-76
2021/12/12 02:15:04;;;;;;;9.57;3.00;;;;;;;;;;5059835;28;20199;-76
2021/12/12 02:17:36;;;;;;;3.15;2.40;;;;;;;;;;5060289;28;20619;-76
2021/12/12 02:20:13;;;;;;;4.88;3.83;;;;;;;;;;5047755;28;20557;-77
2021/12/12 02:22:56;;;;;;;5.15;3.15;;;;;;;;;;5056905;28;20308;-77
2021/12/12 02:36:25;;;;;;;2.95;2.50;;;;;;;;;;5063205;28;20197;-78
2021/12/12 02:38:55;;;;;;;2.88;2.63;;;;;;;;;;5052486;28;20561;-78
2021/12/12 02:41:24;;;;;;;5.40;2.67;;;;;;;;;;5054751;28;20613;-78
2021/12/12 02:43:54;;;;;;;4.00;2.55;;;;;;;;;;5049947;28;20650;-78
2021/12/12 02:46:26;;;;;;;5.03;2.72;;;;;;;;;;5053301;28;20199;-78
2021/12/12 02:48:58;;;;;;;3.83;2.72;;;;;;;;;;5056671;28;20313;-77
2021/12/12 02:51:26;;;;;;;2.67;2.15;;;;;;;;;;5053529;28;20194;-76
2021/12/12 02:53:55;;;;;;;4.93;2.70;;;;;;;;;;5052957;28;20222;-77
2021/12/12 02:56:25;;;;;;;5.05;2.10;;;;;;;;;;5066384;28;20194;-79
2021/12/12 02:58:53;;;;;;;8.38;2.85;;;;;;;;;;5051742;28;20202;-77
2021/12/12 03:01:22;;;;;;;4.18;2.47;;;;;;;;;;5055939;28;20230;-78
2021/12/12 03:03:50;;;;;;;3.90;2.63;;;;;;;;;;5055406;28;20229;-76
2021/12/12 03:06:18;;;;;;;2.35;1.83;;;;;;;;;;5059633;28;20199;-72
2021/12/12 03:08:47;;;;;;;4.05;2.45;;;;;;;;;;5044515;28;20245;-72
2021/12/12 03:11:16;;;;;;;4.40;2.33;;;;;;;;;;5065278;28;20553;-75
2021/12/12 03:13:43;;;;;;;4.32;3.10;;;;;;;;;;5051867;28;20677;-74
2021/12/12 03:16:11;;;;;;;4.25;2.40;;;;;;;;;;5057693;28;20577;-73
2021/12/12 03:18:40;;;;;;;5.65;2.47;;;;;;;;;;5054368;28;20194;-72
2021/12/12 03:21:15;;;;;;;4.22;2.53;;;;;;;;;;5063199;28;20190;-74
2021/12/12 03:23:42;;;;;;;3.17;1.80;;;;;;;;;;5058619;28;20189;-72
2021/12/12 03:26:10;;;;;;;3.75;1.98;;;;;;;;;;5061797;28;20198;-74
2021/12/12 03:28:40;;;;;;;3.45;2.92;;;;;;;;;;5055802;28;20771;-73
2021/12/12 03:31:09;;;;;;;4.15;1.88;;;;;;;;;;5058091;28;20195;-74
2021/12/12 03:33:37;;;;;;;4.45;2.35;;;;;;;;;;5052283;28;20569;-73
2021/12/12 03:36:06;;;;;;;2.60;2.15;;;;;;;;;;5057896;28;20198;-73
2021/12/12 03:38:33;;;;;;;3.60;2.50;;;;;;;;;;5052581;28;20571;-73
2021/12/12 03:41:02;;;;;;;3.55;2.83;;;;;;;;;;5063135;28;20201;-73
2021/12/12 03:43:29;;;;;;;1.75;1.65;;;;;;;;;;5058626;28;20202;-73
2021/12/12 03:45:58;;;;;;;3.10;2.22;;;;;;;;;;5055469;28;20190;-78
2021/12/12 03:48:26;;;;;;;2.67;2.30;;;;;;;;;;5058698;28;20198;-78
2021/12/12 03:50:55;;;;;;;8.55;2.60;;;;;;;;;;5052163;28;20191;-77
2021/12/12 03:53:22;;;;;;;2.85;2.30;;;;;;;;;;5051245;28;20218;-78
2021/12/12 03:55:50;;;;;;;5.43;2.75;;;;;;;;;;5060794;28;20194;-79
2021/12/12 03:58:18;;;;;;;4.03;2.67;;;;;;;;;;5058540;28;20655;-78
2021/12/12 04:00:46;;;;;;;2.78;2.30;;;;;;;;;;5048102;28;20227;-78
2021/12/12 04:03:16;;;;;;;3.70;2.25;;;;;;;;;;5056372;28;20566;-78
2021/12/12 04:05:46;;;;;;;2.60;2.20;;;;;;;;;;5056815;28;20199;-77
2021/12/12 04:08:13;;;;;;;4.93;1.80;;;;;;;;;;5049120;28;20772;-77
2021/12/12 04:10:40;;;;;;;4.43;2.15;;;;;;;;;;5055346;28;20214;-76
2021/12/12 04:13:07;;;;;;;5.07;1.65;;;;;;;;;;5048680;28;20202;-76
2021/12/12 04:15:34;;;;;;;2.85;2.15;;;;;;;;;;5052795;28;20206;-77
2021/12/12 04:18:01;;;;;;;3.50;2.13;;;;;;;;;;5050201;28;20214;-77
2021/12/12 04:20:32;;;;;;;5.20;2.72;;;;;;;;;;5047663;28;20648;-77
2021/12/12 04:22:59;;;;;;;4.45;2.20;;;;;;;;;;5038577;28;20200;-76
2021/12/12 04:25:26;;;;;;;2.72;2.10;;;;;;;;;;5053156;28;20222;-76
2021/12/12 04:27:54;;;;;;;3.40;3.10;;;;;;;;;;5060094;28;20194;-77
2021/12/12 04:30:23;;;;;;;2.58;1.73;;;;;;;;;;5058554;28;20234;-76
2021/12/12 04:32:51;;;;;;;1.92;1.40;;;;;;;;;;5047680;28;20285;-76
2021/12/12 04:35:19;;;;;;;4.85;2.40;;;;;;;;;;5047860;28;20206;-77
2021/12/12 04:37:48;;;;;;;2.15;1.70;;;;;;;;;;5065970;28;20607;-76
2021/12/12 04:40:16;;;;;;;3.05;1.80;;;;;;;;;;5054458;28;20206;-76
2021/12/12 04:42:45;;;;;;;2.42;1.50;;;;;;;;;;5055342;28;20203;-76
2021/12/12 04:45:21;;;;;;;4.32;2.00;;;;;;;;;;5054961;28;20195;-76
2021/12/12 04:50:43;;;;;;;2.92;2.13;;;;;;;;;;5063937;28;20288;-76
2021/12/12 04:53:13;;;;;;;1.95;1.75;;;;;;;;;;5050742;28;20562;-76
2021/12/12 04:55:46;;;;;;;3.90;2.17;;;;;;;;;;5051271;28;20195;-75
2021/12/12 04:58:16;;;;;;;3.00;2.38;;;;;;;;;;5058564;28;20211;-76
2021/12/12 05:00:47;;;;;;;3.33;2.10;;;;;;;;;;5060464;28;20253;-76
2021/12/12 05:03:17;;;;;;;2.60;1.60;;;;;;;;;;5050209;28;20194;-76
2021/12/12 05:05:49;;;;;;;3.22;1.88;;;;;;;;;;5050625;28;20206;-77
2021/12/12 05:08:20;;;;;;;2.38;1.70;;;;;;;;;;5047942;28;20207;-76
2021/12/12 05:10:50;;;;;;;2.50;1.77;;;;;;;;;;5061615;28;20217;-76
2021/12/12 05:13:19;;;;;;;1.85;1.65;;;;;;;;;;5063624;28;20210;-76
2021/12/12 05:15:47;;;;;;;1.88;1.70;;;;;;;;;;5052726;28;20689;-77
2021/12/12 05:18:15;;;;;;;1.88;1.77;;;;;;;;;;5047894;28;20198;-76
2021/12/12 05:20:45;;;;;;;2.33;1.70;;;;;;;;;;5055250;28;20186;-76
2021/12/12 05:23:14;;;;;;;3.20;1.80;;;;;;;;;;5051685;28;20214;-76
2021/12/12 05:25:44;;;;;;;4.15;2.13;;;;;;;;;;5052669;28;20190;-76
2021/12/12 05:28:12;;;;;;;3.17;1.75;;;;;;;;;;5062845;28;20213;-77
2021/12/12 05:30:39;;;;;;;3.83;1.73;;;;;;;;;;5047714;28;20883;-77
2021/12/12 05:33:07;;;;;;;2.67;1.90;;;;;;;;;;5052075;28;20662;-76
2021/12/12 05:35:35;;;;;;;6.10;1.98;;;;;;;;;;5063556;28;20560;-76
2021/12/12 05:38:03;;;;;;;3.65;1.85;;;;;;;;;;5046882;28;20567;-76
2021/12/12 05:40:32;;;;;;;2.95;1.77;;;;;;;;;;5049607;28;20202;-76
2021/12/12 05:43:02;;;;;;;3.75;1.83;;;;;;;;;;5057407;28;20195;-76
2021/12/12 05:45:29;;;;;;;4.38;1.85;;;;;;;;;;5048258;28;20199;-75
2021/12/12 05:47:56;;;;;;;3.42;2.10;;;;;;;;;;5059879;28;20221;-77
2021/12/12 05:50:24;;;;;;;2.17;1.90;;;;;;;;;;5054869;28;20218;-77
2021/12/12 05:52:54;;;;;;;2.00;1.60;;;;;;;;;;5056400;28;20236;-78
2021/12/12 05:55:21;;;;;;;1.90;1.67;;;;;;;;;;5050764;28;20206;-78
2021/12/12 05:57:54;;;;;;;3.03;1.60;;;;;;;;;;5063491;28;20205;-77
2021/12/12 06:00:23;;;;;;;2.30;2.08;;;;;;;;;;5047350;28;20224;-77
2021/12/12 06:02:51;;;;;;;2.85;1.80;;;;;;;;;;5058794;28;20210;-76
2021/12/12 06:05:18;;;;;;;4.95;1.60;;;;;;;;;;5068323;28;20593;-77
2021/12/12 06:07:45;;;;;;;4.50;2.60;;;;;;;;;;5051780;28;20195;-76
2021/12/12 06:10:14;;;;;;;2.50;2.00;;;;;;;;;;5050392;28;20223;-76
2021/12/12 06:12:42;;;;;;;3.92;1.50;;;;;;;;;;5053744;28;20669;-76
2021/12/12 06:15:11;;;;;;;3.17;2.00;;;;;;;;;;5052514;28;20647;-77
2021/12/12 06:17:39;;;;;;;2.38;1.90;;;;;;;;;;5046244;28;20195;-77
2021/12/12 06:20:08;;;;;;;4.55;2.35;;;;;;;;;;5053480;28;20217;-76
2021/12/12 06:22:35;;;;;;;7.13;1.63;;;;;;;;;;5047871;28;20219;-77
2021/12/12 06:25:03;;;;;;;4.10;2.17;;;;;;;;;;5051648;28;20668;-77
2021/12/12 06:27:30;;;;;;;5.85;1.85;;;;;;;;;;5053404;28;20198;-77
2021/12/12 06:29:57;;;;;;;3.63;1.73;;;;;;;;;;5053677;28;20597;-77
2021/12/12 06:32:24;;;;;;;2.60;1.35;;;;;;;;;;5052663;28;20199;-77
2021/12/12 06:34:56;;;;;;;3.55;2.08;;;;;;;;;;5050184;28;20198;-76
2021/12/12 06:37:23;;;;;;;3.53;2.05;;;;;;;;;;5047071;28;20203;-76
2021/12/12 06:39:51;;;;;;;2.63;2.00;;;;;;;;;;5052473;28;20191;-77
2021/12/12 06:42:18;;;;;;;3.47;1.88;;;;;;;;;;5053329;28;20198;-76
2021/12/12 06:44:45;;;;;;;3.05;2.15;;;;;;;;;;5051898;28;20191;-76
2021/12/12 06:47:14;;;;;;;5.43;2.25;;;;;;;;;;5041793;28;20203;-76
2021/12/12 06:49:42;;;;;;;4.05;2.08;;;;;;;;;;5058796;28;20609;-76
2021/12/12 06:52:11;;;;;;;2.95;2.00;;;;;;;;;;5050670;28;20203;-76
2021/12/12 06:54:39;;;;;;;2.28;1.98;;;;;;;;;;5061153;28;20209;-77
2021/12/12 06:57:07;;;;;;;3.50;1.70;;;;;;;;;;5063310;28;20198;-76
2021/12/12 06:59:36;;;;;;;2.58;2.00;;;;;;;;;;5056448;28;20590;-76
2021/12/12 07:02:04;;;;;;;2.42;1.75;;;;;;;;;;5049672;28;20206;-77
2021/12/12 07:04:32;;;;;;;2.58;1.85;;;;;;;;;;5064799;28;20191;-77
2021/12/12 07:07:00;;;;;;;3.53;1.80;;;;;;;;;;5053793;28;20666;-77
2021/12/12 07:09:31;;;;;;;4.20;2.40;;;;;;;;;;5051068;28;20203;-77
2021/12/12 07:12:00;;;;;;;5.00;2.28;;;;;;;;;;5053580;28;20195;-75
2021/12/12 07:14:28;;;;;;;2.50;1.60;;;;;;;;;;5053255;28;20740;-77
2021/12/12 07:16:56;;;;;;;2.70;1.85;;;;;;;;;;5050088;28;20192;-77
2021/12/12 07:19:23;;;;;;;2.15;1.70;;;;;;;;;;5050222;28;20196;-77
2021/12/12 07:21:51;;;;;;;3.17;2.17;;;;;;;;;;5057105;28;20198;-76
2021/12/12 07:24:19;;;;;;;1.95;1.85;;;;;;;;;;5055362;28;20655;-76
2021/12/12 07:26:47;;;;;;;3.80;2.53;;;;;;;;;;5061245;28;20199;-77
2021/12/12 07:29:15;;;;;;;3.65;1.83;;;;;;;;;;5069277;28;20202;-76
2021/12/12 07:31:43;;;;;;;5.45;2.28;;;;;;;;;;5059485;28;20218;-77
2021/12/12 07:34:11;;;;;;;3.22;1.92;;;;;;;;;;5051965;28;20214;-76
2021/12/12 07:36:41;;;;;;;2.05;1.45;;;;;;;;;;5062634;28;20557;-76
2021/12/12 07:39:10;;;;;;;2.83;1.75;;;;;;;;;;5034966;28;20199;-76
2021/12/12 07:41:38;;;;;;;2.60;2.15;;;;;;;;;;5053057;28;20199;-76
2021/12/12 07:44:08;;;;;;;3.40;1.75;;;;;;;;;;5063000;28;20201;-75
2021/12/12 07:46:35;;;;;;;7.00;1.88;;;;;;;;;;5035899;28;20570;-76
2021/12/12 07:49:03;;;;;;;2.20;2.00;;;;;;;;;;5034770;28;20204;-77
2021/12/12 07:51:30;;;;;;;5.80;2.25;;;;;;;;;;5040198;28;20226;-77
2021/12/12 07:53:59;;;;;;;5.70;1.80;;;;;;;;;;5058167;28;20198;-76
2021/12/12 07:56:30;;;;;;;3.92;2.08;;;;;;;;;;5065659;28;20206;-76
2021/12/12 07:58:58;;;;;;;3.20;1.70;;;;;;;;;;5062532;28;20206;-76
2021/12/12 08:01:27;;;;;;;3.05;1.60;;;;;;;;;;5051874;28;20671;-76
2021/12/12 08:03:54;;;;;;;4.63;2.15;;;;;;;;;;5070366;28;20281;-76
2021/12/12 08:06:22;;;;;;;3.85;2.10;;;;;;;;;;5058693;28;20221;-76
2021/12/12 08:08:49;;;;;;;2.20;2.00;;;;;;;;;;5049669;28;20685;-78
2021/12/12 08:11:17;;;;;;;2.10;1.63;;;;;;;;;;5059223;28;20225;-76
2021/12/12 08:13:44;;;;;;;2.13;1.90;;;;;;;;;;5042782;28;20554;-76
2021/12/12 08:16:14;;;;;;;2.80;1.50;;;;;;;;;;5045974;28;20198;-77
2021/12/12 08:18:43;;;;;;;2.00;1.80;;;;;;;;;;5049088;28;20202;-77
2021/12/12 08:21:11;;;;;;;2.80;2.38;;;;;;;;;;5054219;28;20222;-77
2021/12/12 08:23:39;;;;;;;3.15;2.10;;;;;;;;;;5049808;28;20213;-77
2021/12/12 08:26:07;;;;;;;2.30;1.50;;;;;;;;;;5059210;28;20558;-77
2021/12/12 08:28:34;;;;;;;3.15;2.20;;;;;;;;;;5051745;28;20210;-76
2021/12/12 08:31:02;;;;;;;2.65;1.50;;;;;;;;;;5060214;28;20220;-77
2021/12/12 08:33:29;;;;;;;1.50;1.40;;;;;;;;;;5054272;28;20205;-77
2021/12/12 08:35:58;;;;;;;4.63;1.40;;;;;;;;;;5051711;28;20278;-76
2021/12/12 08:38:26;;;;;;;2.92;1.33;;;;;;;;;;5046308;28;20640;-76
2021/12/12 08:40:55;;;;;;;3.13;1.70;;;;;;;;;;5038151;28;20190;-75
2021/12/12 08:43:23;;;;;;;2.47;1.60;;;;;;;;;;5058399;28;20217;-76
2021/12/12 08:45:52;;;;;;;2.17;1.55;;;;;;;;;;5052018;28;20677;-76
2021/12/12 08:48:20;;;;;;;3.28;1.63;;;;;;;;;;5049208;28;20201;-76
2021/12/12 08:50:49;;;;;;;2.45;1.58;;;;;;;;;;5062649;28;20218;-77
2021/12/12 08:53:19;;;;;;;1.95;1.40;;;;;;;;;;5061982;28;20202;-76
2021/12/12 08:55:49;;;;;;;1.92;1.70;;;;;;;;;;5048267;28;20597;-76
2021/12/12 08:58:17;;;;;;;1.20;1.10;;;;;;;;;;5064575;28;20547;-77
2021/12/12 09:00:48;;;;;;;2.05;1.70;;;;;;;;;;5038691;28;20211;-76
2021/12/12 09:03:17;;;;;;;2.10;1.40;;;;;;;;;;5052779;28;20730;-76
2021/12/12 09:05:44;;;;;;;2.08;1.45;;;;;;;;;;5053305;28;20654;-77
2021/12/12 09:08:13;;;;;;;1.90;1.70;;;;;;;;;;5055410;28;20210;-77
2021/12/12 09:10:44;;;;;;;1.98;1.50;;;;;;;;;;5051053;28;20559;-77
2021/12/12 09:13:13;;;;;;;1.77;1.67;;;;;;;;;;5055964;28;20233;-78
2021/12/12 09:15:43;;;;;;;1.50;1.25;;;;;;;;;;5052901;28;20639;-77
2021/12/12 09:18:11;;;;;;;1.85;1.65;;;;;;;;;;5054440;28;20202;-78
2021/12/12 09:20:47;;;;;;;2.22;1.40;;;;;;;;;;5057057;28;20188;-76
2021/12/12 09:23:18;;;;;;;1.40;1.30;;;;;;;;;;5042987;28;20209;-77
2021/12/12 09:25:52;;;;;;;2.03;1.60;;;;;;;;;;5058776;28;20210;-77
2021/12/12 09:28:24;;;;;;;3.58;2.03;;;;;;;;;;5058543;28;20587;-77
2021/12/12 09:30:51;;;;;;;1.52;1.40;;;;;;;;;;5060168;28;20289;-76
2021/12/12 09:33:22;;;;;;;3.05;1.40;;;;;;;;;;5038481;28;20277;-77
2021/12/12 09:35:51;;;;;;;2.00;1.27;;;;;;;;;;5050997;28;20511;-77
2021/12/12 09:38:21;;;;;;;1.50;1.10;;;;;;;;;;5041766;28;20586;-77
2021/12/12 09:41:04;;;;;;;1.55;1.42;;;;;;;;;;5056603;28;20194;-77
2021/12/12 09:43:36;;;;;;;2.80;1.60;;;;;;;;;;5048056;28;20222;-77
2021/12/12 09:46:07;;;;;;;2.00;1.67;;;;;;;;;;5063250;28;20221;-76
2021/12/12 09:51:47;;;;;;;1.90;1.52;;;;;;;;;;5048819;28;20221;-78
2021/12/12 09:54:21;;;;;;;1.48;1.38;;;;;;;;;;5065007;28;20202;-77
2021/12/12 09:56:53;;;;;;;1.58;1.20;;;;;;;;;;5057381;28;20197;-77
2021/12/12 09:59:28;;;;;;;1.75;1.20;;;;;;;;;;5047831;28;20691;-78
2021/12/12 10:01:58;;;;;;;2.53;1.40;;;;;;;;;;5060029;28;20198;-77
2021/12/12 10:04:28;;;;;;;1.55;1.33;;;;;;;;;;5068824;28;20678;-75
2021/12/12 10:07:02;;;;;;;1.42;1.33;;;;;;;;;;5054836;28;20202;-77
2021/12/12 10:09:31;;;;;;;1.40;1.30;;;;;;;;;;5042220;28;20202;-77
2021/12/12 10:12:02;;;;;;;2.80;1.58;;;;;;;;;;5053918;28;20700;-77
2021/12/12 10:14:30;;;;;;;2.95;1.40;;;;;;;;;;5059648;28;20202;-77
2021/12/12 10:17:00;;;;;;;2.20;1.45;;;;;;;;;;5054673;28;20202;-77
2021/12/12 10:19:29;;;;;;;1.35;1.25;;;;;;;;;;5045053;28;20295;-78
2021/12/12 10:22:01;;;;;;;1.52;1.30;;;;;;;;;;5052623;28;20206;-77
2021/12/12 10:24:31;;;;;;;1.83;1.50;;;;;;;;;;5057371;28;20199;-77
2021/12/12 10:27:05;;;;;;;1.35;1.25;;;;;;;;;;5049762;28;20202;-77
2021/12/12 10:29:35;;;;;;;1.45;1.35;;;;;;;;;;5053553;28;20209;-76
2021/12/12 10:32:05;;;;;;;1.52;1.42;;;;;;;;;;5034351;28;20219;-76
2021/12/12 10:34:35;;;;;;;2.25;1.52;;;;;;;;;;5054363;28;20195;-77
2021/12/12 10:37:06;;;;;;;2.70;1.50;;;;;;;;;;5051325;28;20577;-77
2021/12/12 10:39:35;;;;;;;1.77;1.20;;;;;;;;;;5051096;28;20214;-76
2021/12/12 10:42:05;;;;;;;1.80;1.30;;;;;;;;;;5056949;28;20215;-77
2021/12/12 10:44:33;;;;;;;1.55;1.25;;;;;;;;;;5055825;28;20199;-77
2021/12/12 10:47:06;;;;;;;1.42;1.23;;;;;;;;;;5053557;28;20191;-77
2021/12/12 10:49:40;;;;;;;1.42;1.33;;;;;;;;;;5058274;28;20209;-78
2021/12/12 10:52:09;;;;;;;1.83;1.73;;;;;;;;;;5063679;28;20704;-77
2021/12/12 10:54:41;;;;;;;2.70;1.52;;;;;;;;;;5053581;28;20199;-78
2021/12/12 10:57:11;;;;;;;1.50;1.20;;;;;;;;;;5053043;28;20225;-77
2021/12/12 10:59:41;;;;;;;2.05;1.42;;;;;;;;;;5048060;28;20222;-80
2021/12/12 11:02:10;;;;;;;1.70;1.27;;;;;;;;;;5053868;28;20729;-79
2021/12/12 11:04:42;;;;;;;2.65;1.55;;;;;;;;;;5065605;28;20213;-82
2021/12/12 11:07:12;;;;;;;2.03;1.83;;;;;;;;;;5065766;28;20565;-82
2021/12/12 11:09:43;;;;;;;1.30;1.20;;;;;;;;;;5050656;28;20245;-83
2021/12/12 11:12:17;;;;;;;4.55;1.48;;;;;;;;;;5047634;28;20226;-83
2021/12/12 11:14:49;;;;;;;1.52;1.20;;;;;;;;;;5054429;28;20285;-83
2021/12/12 11:17:19;;;;;;;1.77;1.40;;;;;;;;;;5046236;28;20564;-80
2021/12/12 11:19:48;;;;;;;1.40;1.30;;;;;;;;;;5054106;28;20672;-79
2021/12/12 11:22:17;;;;;;;1.30;1.20;;;;;;;;;;5045655;28;20206;-79
2021/12/12 11:24:48;;;;;;;1.70;1.60;;;;;;;;;;5054847;28;20289;-77
2021/12/12 11:27:18;;;;;;;1.20;1.10;;;;;;;;;;5056224;28;20194;-79
2021/12/12 11:29:48;;;;;;;1.27;1.02;;;;;;;;;;5060113;28;20290;-79
2021/12/12 11:32:18;;;;;;;2.38;1.88;;;;;;;;;;5053639;28;20709;-80
2021/12/12 11:34:47;;;;;;;2.08;1.65;;;;;;;;;;5048387;28;20203;-82
2021/12/12 11:37:16;;;;;;;1.55;1.45;;;;;;;;;;5056218;28;20211;-80
2021/12/12 11:39:46;;;;;;;2.03;1.92;;;;;;;;;;5050008;28;20195;-80
2021/12/12 11:42:17;;;;;;;2.13;1.42;;;;;;;;;;5061968;28;20205;-80
2021/12/12 11:44:50;;;;;;;2.20;1.80;;;;;;;;;;5053326;28;20277;-80
2021/12/12 11:47:20;;;;;;;2.65;1.77;;;;;;;;;;5051690;28;20199;-80
2021/12/12 11:49:51;;;;;;;1.60;1.45;;;;;;;;;;5047945;28;20591;-80
2021/12/12 11:52:25;;;;;;;1.63;1.33;;;;;;;;;;5050930;28;20227;-79
2021/12/12 11:55:00;;;;;;;1.70;1.60;;;;;;;;;;5059338;28;20203;-79
2021/12/12 11:57:28;;;;;;;2.03;1.48;;;;;;;;;;5052288;28;20202;-79
2021/12/12 12:00:01;;;;;;;2.75;1.80;;;;;;;;;;5053895;28;20218;-81
2021/12/12 12:02:32;;;;;;;3.05;1.98;;;;;;;;;;5050481;28;20203;-77
2021/12/12 12:05:07;;;;;;;2.30;2.05;;;;;;;;;;5056009;28;20637;-77
2021/12/12 12:07:41;;;;;;;1.60;1.50;;;;;;;;;;5050264;28;20202;-77
2021/12/12 12:10:11;;;;;;;2.70;2.22;;;;;;;;;;5051180;28;20248;-77
2021/12/12 12:12:52;;;;;;;1.90;1.80;;;;;;;;;;5049233;28;20462;-78
2021/12/12 12:15:26;;;;;;;3.20;1.42;;;;;;;;;;5057461;28;20202;-77
2021/12/12 12:17:59;;;;;;;1.90;1.80;;;;;;;;;;5049033;28;20198;-77
2021/12/12 12:20:30;;;;;;;2.20;1.73;;;;;;;;;;5049536;28;20650;-77
2021/12/12 12:23:01;;;;;;;1.75;1.45;;;;;;;;;;5054965;28;20226;-77
2021/12/12 12:26:50;;;;;;;2.00;1.90;;;;;;;;;;5061306;28;20202;-77
2021/12/12 12:28:26;;;;;;;1.60;1.45;;;;;;;;;;5055000;28;20249;-77
2021/12/12 12:31:08;;;;;;;1.85;1.50;;;;;;;;;;5058947;28;20206;-77
2021/12/12 12:33:59;;;;;;;1.80;1.63;;;;;;;;;;5048348;28;20295;-77
2021/12/12 12:37:13;;;;;;;3.92;1.95;;;;;;;;;;5066421;28;20259;-77
2021/12/12 12:39:58;;;;;;;2.60;2.00;;;;;;;;;;5047295;28;20194;-77
2021/12/12 12:42:44;;;;;;;4.82;2.08;;;;;;;;;;5051690;28;20221;-77
2021/12/12 12:45:38;;;;;;;6.07;3.20;;;;;;;;;;5051180;28;20199;-78
2021/12/12 12:48:26;;;;;;;2.00;1.40;;;;;;;;;;5046685;28;20195;-76
2021/12/12 12:51:03;;;;;;;1.70;1.55;;;;;;;;;;5046672;28;20190;-78
2021/12/12 12:53:47;;;;;;;1.88;1.60;;;;;;;;;;5051487;28;20202;-78
2021/12/12 12:56:34;;;;;;;2.47;1.60;;;;;;;;;;5060062;28;20202;-77
2021/12/12 12:59:18;;;;;;;2.78;2.03;;;;;;;;;;5052596;28;20680;-77
2021/12/12 13:01:53;;;;;;;2.80;2.42;;;;;;;;;;5051251;28;20277;-77
2021/12/12 13:04:23;;;;;;;1.92;1.80;;;;;;;;;;5052982;28;20210;-77
2021/12/12 13:07:09;;;;;;;1.90;1.67;;;;;;;;;;5050632;28;20201;-77
2021/12/12 13:09:51;;;;;;;2.65;1.90;;;;;;;;;;5050496;28;20658;-77
2021/12/12 13:12:32;;;;;;;1.52;1.42;;;;;;;;;;5050895;28;20215;-78
2021/12/12 13:15:03;;;;;;;1.38;1.27;;;;;;;;;;5050197;28;20541;-77
2021/12/12 13:17:42;;;;;;;2.55;1.60;;;;;;;;;;5050597;28;20494;-77
2021/12/12 13:20:29;;;;;;;2.80;1.90;;;;;;;;;;5066882;28;20302;-77
2021/12/12 13:23:08;;;;;;;3.53;1.75;;;;;;;;;;5043601;28;20191;-78
2021/12/12 13:25:37;;;;;;;1.67;1.58;;;;;;;;;;5048481;28;20680;-78
2021/12/12 13:28:16;;;;;;;2.13;1.92;;;;;;;;;;5061484;28;20194;-77
2021/12/12 13:30:47;;;;;;;1.63;1.50;;;;;;;;;;5054228;28;20199;-78
2021/12/12 13:33:23;;;;;;;1.77;1.65;;;;;;;;;;5053566;28;20219;-77
2021/12/12 13:36:00;;;;;;;1.65;1.52;;;;;;;;;;5036079;28;20191;-77
2021/12/12 13:38:33;;;;;;;2.42;1.65;;;;;;;;;;5041672;28;20205;-76
2021/12/12 13:41:05;;;;;;;1.88;1.70;;;;;;;;;;5054916;28;20201;-77
2021/12/12 13:43:36;;;;;;;1.98;1.80;;;;;;;;;;5049286;28;20669;-77
2021/12/12 13:46:10;;;;;;;2.28;1.92;;;;;;;;;;5050741;28;20588;-77
2021/12/12 13:48:44;;;;;;;2.10;1.40;;;;;;;;;;5053483;28;20225;-77
2021/12/12 13:51:22;;;;;;;5.68;1.75;;;;;;;;;;5062670;28;20703;-77
2021/12/12 13:53:54;;;;;;;1.70;1.60;;;;;;;;;;5039058;28;20218;-78
2021/12/12 13:56:24;;;;;;;2.63;1.67;;;;;;;;;;5049950;28;20226;-78
2021/12/12 13:58:57;;;;;;;1.50;1.30;;;;;;;;;;5051978;28;20658;-78
2021/12/12 14:01:26;;;;;;;2.55;1.50;;;;;;;;;;5051983;28;20569;-80
2021/12/12 14:03:57;;;;;;;1.73;1.45;;;;;;;;;;5060717;28;20205;-79
2021/12/12 14:06:31;;;;;;;1.83;1.55;;;;;;;;;;5056277;28;20199;-78
2021/12/12 14:09:00;;;;;;;2.20;2.00;;;;;;;;;;5038846;28;20209;-78
2021/12/12 14:11:34;;;;;;;1.95;1.67;;;;;;;;;;5059091;28;20199;-77
2021/12/12 14:14:05;;;;;;;2.75;1.52;;;;;;;;;;5053064;28;20221;-77
2021/12/12 14:16:36;;;;;;;6.95;1.73;;;;;;;;;;5042539;28;20202;-77
2021/12/12 14:19:07;;;;;;;2.03;1.80;;;;;;;;;;5051060;28;20194;-77
2021/12/12 14:21:35;;;;;;;3.45;1.60;;;;;;;;;;5050672;28;20196;-78
2021/12/12 14:24:04;;;;;;;2.80;2.13;;;;;;;;;;5058540;28;20205;-77
2021/12/12 14:26:36;;;;;;;1.60;1.50;;;;;;;;;;5064503;28;20201;-77
2021/12/12 14:29:07;;;;;;;2.13;1.50;;;;;;;;;;5050538;28;20198;-77
2021/12/12 14:31:35;;;;;;;4.45;1.83;;;;;;;;;;5047680;28;20286;-79
2021/12/12 14:34:07;;;;;;;1.95;1.50;;;;;;;;;;5043371;28;20202;-77
2021/12/12 14:36:37;;;;;;;3.10;2.00;;;;;;;;;;5053387;28;20199;-77
2021/12/12 14:39:05;;;;;;;2.30;2.10;;;;;;;;;;5059513;28;20253;-77
2021/12/12 14:41:36;;;;;;;4.35;2.83;;;;;;;;;;5050299;28;20199;-77
2021/12/12 14:44:07;;;;;;;2.03;1.50;;;;;;;;;;5052381;28;20281;-77
2021/12/12 14:46:36;;;;;;;2.00;1.65;;;;;;;;;;5041748;28;20191;-77
2021/12/12 14:49:05;;;;;;;1.50;1.40;;;;;;;;;;5042718;28;20199;-77
2021/12/12 14:51:33;;;;;;;1.70;1.60;;;;;;;;;;5046770;28;20192;-77
2021/12/12 14:54:04;;;;;;;2.70;2.30;;;;;;;;;;5047442;28;20215;-77
2021/12/12 14:56:32;;;;;;;1.90;1.50;;;;;;;;;;5049773;28;20290;-76
2021/12/12 14:59:01;;;;;;;4.60;2.38;;;;;;;;;;5057819;28;20214;-77
2021/12/12 15:01:33;;;;;;;2.60;1.60;;;;;;;;;;5050442;28;20536;-77
2021/12/12 15:04:04;;;;;;;3.15;2.10;;;;;;;;;;5047537;28;20199;-77
2021/12/12 15:06:33;;;;;;;1.95;1.83;;;;;;;;;;5048123;28;20253;-76
2021/12/12 15:09:01;;;;;;;3.95;2.30;;;;;;;;;;5042201;28;20210;-77
2021/12/12 15:11:31;;;;;;;3.30;2.15;;;;;;;;;;5055732;28;20201;-77
2021/12/12 15:13:59;;;;;;;2.20;2.00;;;;;;;;;;5043680;28;20220;-77
2021/12/12 15:16:32;;;;;;;1.95;1.73;;;;;;;;;;5057814;28;20200;-77
2021/12/12 15:19:00;;;;;;;2.20;2.00;;;;;;;;;;5033275;28;20414;-77